Time;durP1;ratioP1;P1;durP2;ratioP2;P2;SDS_P1;SDS_P2;PMS_P1;PMS_P2;Temp;Humidity;BMP_temperature;BMP_pressure;BME280_temperature;BME280_humidity;BME280_pressure;Samples;Min_cycle;Max_cycle;Signal;HPM_P1;HPM_P2
2022/06/27 00:01:10;;;;;;;5.73;4.40;;;;;;;21.72;90.83;100802.56;5075921;28;20443;-69
2022/06/27 00:03:36;;;;;;;4.50;4.03;;;;;;;21.67;90.88;100800.13;5075790;28;20540;-69
2022/06/27 00:06:04;;;;;;;6.43;4.20;;;;;;;21.63;91.08;100802.03;5075806;28;20520;-69
2022/06/27 00:08:31;;;;;;;5.57;3.97;;;;;;;21.63;91.18;100807.56;5075663;28;20485;-69
2022/06/27 00:10:58;;;;;;;6.03;4.80;;;;;;;21.60;91.08;100809.09;5075661;28;20463;-69
2022/06/27 00:13:24;;;;;;;8.53;4.43;;;;;;;21.58;91.09;100814.19;5075422;28;20568;-69
2022/06/27 00:15:51;;;;;;;5.83;4.67;;;;;;;21.57;91.41;100814.56;5075601;28;20473;-69
2022/06/27 00:18:17;;;;;;;5.20;4.20;;;;;;;21.54;91.88;100823.56;5075509;28;20438;-69
2022/06/27 00:20:44;;;;;;;6.43;4.93;;;;;;;21.51;91.82;100825.09;5075514;28;20472;-69
2022/06/27 00:23:12;;;;;;;4.30;3.80;;;;;;;21.50;92.07;100831.78;5075410;28;20878;-69
2022/06/27 00:25:39;;;;;;;4.73;4.07;;;;;;;21.49;92.03;100834.91;5075094;28;21014;-69
2022/06/27 00:28:05;;;;;;;5.40;4.37;;;;;;;21.45;92.14;100836.81;5075181;28;20447;-69
2022/06/27 00:30:32;;;;;;;6.33;4.60;;;;;;;21.42;92.18;100835.56;5075300;28;20441;-69
2022/06/27 00:32:58;;;;;;;5.77;4.57;;;;;;;21.38;92.53;100827.25;5075231;28;20452;-69
2022/06/27 00:35:25;;;;;;;9.30;4.90;;;;;;;21.37;92.06;100822.91;5074935;28;20994;-69
2022/06/27 00:37:51;;;;;;;5.90;4.57;;;;;;;21.33;92.49;100835.81;5075430;28;20532;-69
2022/06/27 00:40:19;;;;;;;4.57;3.50;;;;;;;21.31;92.30;100840.91;5075107;28;20444;-67
2022/06/27 00:42:46;;;;;;;5.80;4.70;;;;;;;21.31;92.70;100827.13;5075278;28;20457;-69
2022/06/27 00:45:13;;;;;;;9.90;5.47;;;;;;;;;;5075103;28;20808;-70
2022/06/27 00:47:39;;;;;;;8.07;5.07;;;;;;;21.27;92.56;100825.44;5075295;28;20528;-70
2022/06/27 00:50:08;;;;;;;7.30;4.97;;;;;;;21.23;92.54;100825.38;5074888;28;20572;-68
2022/06/27 00:52:35;;;;;;;12.07;4.73;;;;;;;21.21;92.76;100830.47;5074856;28;20468;-70
2022/06/27 00:55:03;;;;;;;5.00;4.33;;;;;;;21.20;92.52;100836.34;5074871;28;20473;-70
2022/06/27 00:57:31;;;;;;;4.80;4.27;;;;;;;21.17;93.01;100827.66;5074652;28;20887;-70
2022/06/27 00:59:58;;;;;;;4.83;4.33;;;;;;;21.13;92.52;100823.25;5073727;28;20443;-70
2022/06/27 01:02:25;;;;;;;5.17;4.37;;;;;;;21.08;93.30;100818.06;5074332;28;20552;-70
2022/06/27 01:04:52;;;;;;;6.70;4.40;;;;;;;21.05;93.66;100824.28;5074648;28;20441;-70
2022/06/27 01:07:18;;;;;;;9.30;4.77;;;;;;;21.07;93.23;100817.25;5074545;28;20434;-70
2022/06/27 01:09:45;;;;;;;7.83;4.97;;;;;;;21.02;93.34;100814.78;5074585;28;20489;-70
2022/06/27 01:12:12;;;;;;;6.93;4.20;;;;;;;21.01;93.73;100812.41;5074284;28;20477;-70
2022/06/27 01:14:41;;;;;;;6.87;5.20;;;;;;;20.97;93.71;100819.81;5074717;28;20437;-70
2022/06/27 01:17:08;;;;;;;4.70;4.07;;;;;;;21.01;93.54;100820.66;5074485;28;20524;-70
2022/06/27 01:19:34;;;;;;;6.33;5.10;;;;;;;21.01;93.59;100821.47;5074320;28;20476;-70
2022/06/27 01:22:06;;;;;;;6.23;4.90;;;;;;;20.98;93.64;100824.94;5074261;28;20548;-70
2022/06/27 01:24:32;;;;;;;17.60;5.63;;;;;;;20.95;93.52;100819.38;5074331;28;20512;-70
2022/06/27 01:26:59;;;;;;;7.77;5.20;;;;;;;20.93;94.06;100819.72;5074199;28;20437;-70
2022/06/27 01:29:26;;;;;;;9.10;5.07;;;;;;;20.94;94.48;100815.00;5074358;28;20567;-70
2022/06/27 01:31:52;;;;;;;7.00;4.80;;;;;;;20.91;94.12;100819.31;5074112;28;20552;-70
2022/06/27 01:34:19;;;;;;;8.47;5.70;;;;;;;20.91;94.10;100828.38;5074079;28;20476;-70
2022/06/27 01:36:47;;;;;;;7.37;5.20;;;;;;;20.88;94.03;100826.34;5074024;28;20437;-70
2022/06/27 01:39:17;;;;;;;15.27;5.20;;;;;;;20.84;94.59;100830.97;5073704;28;20439;-70
2022/06/27 01:41:44;;;;;;;6.00;5.33;;;;;;;20.82;94.73;100825.06;5073886;28;20548;-70
2022/06/27 01:44:12;;;;;;;11.97;5.20;;;;;;;20.85;94.58;100829.84;5074090;28;20445;-70
2022/06/27 01:46:41;;;;;;;6.13;4.80;;;;;;;20.80;94.62;100827.34;5073914;28;20528;-71
2022/06/27 01:49:07;;;;;;;6.43;5.30;;;;;;;20.77;94.72;100819.84;5073766;28;20571;-71
2022/06/27 01:51:34;;;;;;;8.00;5.70;;;;;;;20.77;94.46;100830.06;5073677;28;20499;-71
2022/06/27 01:54:01;;;;;;;7.77;5.37;;;;;;;20.77;94.48;100817.09;5073770;28;20540;-71
2022/06/27 01:56:30;;;;;;;9.43;5.70;;;;;;;20.76;95.17;100821.00;5073684;28;20528;-71
2022/06/27 01:58:57;;;;;;;6.87;4.87;;;;;;;20.76;95.06;100822.94;5073698;28;20546;-70
2022/06/27 02:01:24;;;;;;;6.27;4.70;;;;;;;20.72;94.88;100827.59;5073466;28;20447;-70
2022/06/27 02:03:51;;;;;;;7.60;5.10;;;;;;;20.70;94.96;100827.16;5073276;28;20448;-71
2022/06/27 02:06:18;;;;;;;5.57;5.00;;;;;;;20.68;95.70;100822.03;5073552;28;20441;-72
2022/06/27 02:08:47;;;;;;;7.50;5.00;;;;;;;20.65;94.90;100833.75;5073469;28;20463;-72
2022/06/27 02:11:13;;;;;;;7.13;5.37;;;;;;;20.63;95.46;100833.34;5073434;28;20437;-71
2022/06/27 02:13:42;;;;;;;5.37;4.67;;;;;;;20.63;95.10;100831.38;5073047;28;20564;-72
2022/06/27 02:16:10;;;;;;;7.53;4.63;;;;;;;20.60;95.17;100820.28;5073426;28;20529;-72
2022/06/27 02:18:37;;;;;;;5.57;4.97;;;;;;;20.58;95.45;100831.66;5073375;28;20437;-72
2022/06/27 02:21:04;;;;;;;4.87;4.37;;;;;;;20.54;95.62;100835.50;5073076;28;20477;-71
2022/06/27 02:23:31;;;;;;;9.33;4.87;;;;;;;20.56;95.96;100836.75;5073249;28;20548;-72
2022/06/27 02:25:58;;;;;;;7.10;5.60;;;;;;;20.53;95.51;100837.44;5073362;28;20524;-72
2022/06/27 02:28:28;;;;;;;5.60;4.60;;;;;;;20.51;95.99;100837.03;5073253;28;20445;-72
2022/06/27 02:30:56;;;;;;;7.10;5.20;;;;;;;20.48;96.10;100842.47;5073183;28;20491;-70
2022/06/27 02:33:23;;;;;;;7.33;5.57;;;;;;;20.49;96.66;100836.59;5072805;28;20471;-71
2022/06/27 02:35:54;;;;;;;6.40;4.87;;;;;;;20.47;96.72;100843.59;5072925;28;21014;-70
2022/06/27 02:38:22;;;;;;;7.27;5.50;;;;;;;20.47;96.50;100849.09;5073498;28;20433;-71
2022/06/27 02:40:48;;;;;;;7.57;5.70;;;;;;;20.39;96.57;100845.38;5073160;28;20528;-71
2022/06/27 02:43:17;;;;;;;5.70;5.10;;;;;;;20.44;96.50;100853.34;5073044;28;20465;-71
2022/06/27 02:45:46;;;;;;;7.30;6.07;;;;;;;20.44;96.83;100852.56;5073112;28;20528;-70
2022/06/27 02:48:18;;;;;;;9.30;4.63;;;;;;;20.38;97.25;100857.56;5073099;28;20440;-69
2022/06/27 02:50:48;;;;;;;8.00;5.10;;;;;;;20.41;96.46;100856.84;5072763;28;20970;-74
2022/06/27 02:53:23;;;;;;;7.73;5.67;;;;;;;20.41;96.66;100860.41;5072694;28;20461;-75
2022/06/27 02:55:54;;;;;;;8.67;6.27;;;;;;;20.42;96.58;100864.72;5073097;28;20429;-71
2022/06/27 02:58:28;;;;;;;7.60;5.50;;;;;;;20.41;96.63;100860.41;5073020;28;20443;-69
2022/06/27 03:00:56;;;;;;;11.80;5.70;;;;;;;20.40;96.90;100861.53;5073027;28;20516;-69
2022/06/27 03:03:25;;;;;;;8.13;5.90;;;;;;;20.45;97.07;100867.91;5072712;28;20504;-69
2022/06/27 03:05:56;;;;;;;8.00;5.30;;;;;;;20.45;97.25;100863.19;5074211;28;20485;-69
2022/06/27 03:08:22;;;;;;;7.70;5.50;;;;;;;20.45;97.31;100857.69;5072912;28;20437;-69
2022/06/27 03:10:49;;;;;;;5.97;5.10;;;;;;;20.44;97.56;100855.31;5072791;28;20571;-69
2022/06/27 03:13:15;;;;;;;9.27;6.10;;;;;;;20.46;97.58;100864.81;5072398;28;20473;-72
2022/06/27 03:15:42;;;;;;;6.23;4.47;;;;;;;20.47;97.66;100860.09;5072840;28;20445;-70
2022/06/27 03:18:13;;;;;;;9.90;5.80;;;;;;;20.42;97.54;100861.97;5072811;28;20885;-69
2022/06/27 03:20:41;;;;;;;13.50;5.90;;;;;;;20.46;96.90;100864.81;5072825;28;20442;-69
2022/06/27 03:23:07;;;;;;;5.60;4.80;;;;;;;20.42;97.93;100855.69;5074301;28;21057;-70
2022/06/27 03:25:34;;;;;;;7.53;5.43;;;;;;;20.47;97.42;100871.09;5076545;28;20539;-70
2022/06/27 03:28:00;;;;;;;8.20;6.00;;;;;;;20.48;98.28;100867.22;5076494;28;20437;-70
2022/06/27 03:30:27;;;;;;;6.60;5.30;;;;;;;20.49;98.39;100866.06;5076029;28;21073;-70
2022/06/27 03:32:54;;;;;;;5.80;4.70;;;;;;;20.49;98.61;100866.06;5076324;28;20488;-70
2022/06/27 03:35:20;;;;;;;6.13;5.47;;;;;;;20.52;98.45;100868.91;5076297;28;20440;-69
2022/06/27 03:37:48;;;;;;;7.93;5.80;;;;;;;20.54;98.46;100869.34;5076018;28;20520;-70
2022/06/27 03:40:15;;;;;;;8.03;5.63;;;;;;;20.59;98.40;100863.53;5075943;28;20949;-69
2022/06/27 03:42:41;;;;;;;5.60;4.60;;;;;;;20.64;98.06;100866.00;5075920;28;20560;-69
2022/06/27 03:45:09;;;;;;;7.63;5.53;;;;;;;20.64;98.96;100870.72;5076122;28;20441;-70
2022/06/27 03:47:46;;;;;;;9.00;6.13;;;;;;;20.63;98.38;100872.69;5075855;28;20935;-70
2022/06/27 03:50:13;;;;;;;8.43;5.60;;;;;;;20.64;99.06;100866.00;5076071;28;20469;-69
2022/06/27 03:52:40;;;;;;;6.07;5.23;;;;;;;20.68;99.10;100871.59;5076026;28;20522;-70
2022/06/27 03:55:08;;;;;;;9.10;5.63;;;;;;;20.69;99.33;100873.19;5076052;28;20463;-69
2022/06/27 03:57:36;;;;;;;8.17;6.43;;;;;;;20.72;100.00;100869.72;5075987;28;20467;-69
2022/06/27 04:00:04;;;;;;;5.13;4.63;;;;;;;20.77;99.89;100869.41;5075904;28;20438;-69
2022/06/27 04:02:31;;;;;;;8.17;6.10;;;;;;;20.86;99.55;100866.44;5075527;28;21042;-69
2022/06/27 04:04:58;;;;;;;8.67;6.23;;;;;;;20.87;99.75;100863.31;5075572;28;20943;-69
2022/06/27 04:07:24;;;;;;;7.07;5.67;;;;;;;20.91;100.00;100863.38;5075719;28;20444;-69
2022/06/27 04:09:51;;;;;;;10.70;7.90;;;;;;;20.96;100.00;100863.06;5075675;28;20571;-70
2022/06/27 04:12:19;;;;;;;7.60;5.70;;;;;;;20.98;100.00;100868.22;5075449;28;20480;-71
2022/06/27 04:14:45;;;;;;;8.60;6.53;;;;;;;21.06;100.00;100858.91;5075699;28;20441;-72
2022/06/27 04:17:12;;;;;;;9.30;6.13;;;;;;;21.14;99.75;100860.66;5075336;28;20445;-72
2022/06/27 04:19:39;;;;;;;8.87;6.90;;;;;;;21.21;98.79;100860.00;5075588;28;20536;-72
2022/06/27 04:22:05;;;;;;;11.67;7.30;;;;;;;;;;5075491;28;20548;-72
2022/06/27 04:24:32;;;;;;;8.30;6.17;;;;;;;21.45;96.43;100853.34;5075496;28;20446;-72
2022/06/27 04:26:58;;;;;;;9.20;7.10;;;;;;;21.57;95.74;100840.16;5075428;28;20879;-72
2022/06/27 04:29:26;;;;;;;10.47;6.20;;;;;;;21.72;94.56;100843.13;5075230;28;20954;-72
2022/06/27 04:31:53;;;;;;;8.10;6.57;;;;;;;21.80;94.14;100836.56;5075262;28;20556;-73
2022/06/27 04:34:20;;;;;;;8.77;6.50;;;;;;;21.94;93.41;100838.75;5074040;28;20485;-72
2022/06/27 04:36:46;;;;;;;9.40;5.60;;;;;;;22.11;92.13;100843.72;5075247;28;20455;-72
2022/06/27 04:39:15;;;;;;;8.83;6.70;;;;;;;22.22;91.58;100841.91;5074935;28;21037;-72
2022/06/27 04:41:42;;;;;;;8.00;5.93;;;;;;;22.35;90.34;100840.50;5075161;28;20811;-74
2022/06/27 04:44:10;;;;;;;8.47;6.87;;;;;;;22.46;89.63;100840.66;5074406;28;20473;-71
2022/06/27 04:46:38;;;;;;;8.30;6.73;;;;;;;22.55;89.21;100834.84;5074601;28;20451;-72
2022/06/27 04:49:05;;;;;;;7.17;5.77;;;;;;;22.63;89.41;100833.75;5074630;28;20442;-71
2022/06/27 04:51:33;;;;;;;8.47;6.00;;;;;;;22.71;89.24;100827.16;5074764;28;20572;-71
2022/06/27 04:53:59;;;;;;;11.00;5.07;;;;;;;22.84;88.74;100825.72;5074928;28;20536;-70
2022/06/27 04:56:27;;;;;;;12.57;5.67;;;;;;;22.97;88.44;100830.97;5074580;28;20438;-70
2022/06/27 04:58:54;;;;;;;10.57;6.33;;;;;;;23.09;87.32;100842.56;5074545;28;20442;-71
2022/06/27 05:01:20;;;;;;;6.90;5.57;;;;;;;23.21;86.56;100835.19;5074768;28;20867;-71
2022/06/27 05:03:48;;;;;;;8.07;5.60;;;;;;;23.32;86.21;100836.84;5074919;28;20476;-67
2022/06/27 05:06:15;;;;;;;8.50;5.93;;;;;;;23.41;85.88;100844.81;5074594;28;20528;-68
2022/06/27 05:08:41;;;;;;;6.20;5.17;;;;;;;23.50;86.48;100827.91;5074567;28;20438;-68
2022/06/27 05:11:08;;;;;;;7.20;4.87;;;;;;;23.58;86.18;100830.34;5074149;28;20481;-68
2022/06/27 05:13:35;;;;;;;9.07;5.83;;;;;;;23.67;86.75;100830.84;5074292;28;20608;-67
2022/06/27 05:16:01;;;;;;;8.13;5.40;;;;;;;23.74;86.27;100835.63;5074118;28;21025;-67
2022/06/27 05:18:28;;;;;;;7.37;4.90;;;;;;;23.80;85.87;100839.63;5074103;28;20990;-67
2022/06/27 05:20:56;;;;;;;6.53;5.50;;;;;;;23.88;85.80;100841.25;5074370;28;20452;-68
2022/06/27 05:23:22;;;;;;;8.90;4.90;;;;;;;24.00;86.28;100842.13;5074188;28;20836;-68
2022/06/27 05:25:49;;;;;;;11.67;5.77;;;;;;;24.05;85.81;100839.00;5074104;28;20448;-68
2022/06/27 05:28:16;;;;;;;7.80;5.30;;;;;;;24.13;84.83;100841.41;5073794;28;20448;-68
2022/06/27 05:30:43;;;;;;;6.43;5.20;;;;;;;24.22;84.10;100838.28;5073758;28;20554;-67
2022/06/27 05:33:09;;;;;;;6.37;5.27;;;;;;;24.34;83.09;100848.22;5073949;28;20540;-68
2022/06/27 05:35:36;;;;;;;8.33;5.27;;;;;;;24.47;82.70;100846.72;5074046;28;20477;-68
2022/06/27 05:38:05;;;;;;;6.13;5.00;;;;;;;24.56;82.69;100840.81;5073665;28;20855;-68
2022/06/27 05:40:33;;;;;;;6.93;4.57;;;;;;;24.65;81.86;100849.56;5073818;28;20471;-68
2022/06/27 05:43:00;;;;;;;5.40;4.53;;;;;;;24.74;80.05;100844.44;5073392;28;20837;-68
2022/06/27 05:45:26;;;;;;;7.20;5.07;;;;;;;24.84;80.00;100843.69;5073555;28;20445;-68
2022/06/27 05:47:59;;;;;;;9.33;6.57;;;;;;;24.95;80.00;100840.94;5073854;28;20448;-68
2022/06/27 05:50:26;;;;;;;5.20;4.70;;;;;;;25.03;79.01;100847.31;5073425;28;20560;-67
2022/06/27 05:52:53;;;;;;;7.60;4.57;;;;;;;25.10;79.19;100850.09;5073666;28;20457;-67
2022/06/27 05:55:22;;;;;;;7.53;5.17;;;;;;;25.15;78.62;100856.06;5073406;28;20437;-68
2022/06/27 05:57:49;;;;;;;5.63;4.77;;;;;;;25.27;77.10;100851.31;5073710;28;20463;-68
2022/06/27 06:00:17;;;;;;;7.03;4.97;;;;;;;25.38;76.39;100849.34;5073557;28;20445;-68
2022/06/27 06:02:44;;;;;;;5.17;4.60;;;;;;;25.51;74.91;100858.06;5073557;28;20461;-67
2022/06/27 06:05:12;;;;;;;6.47;4.80;;;;;;;25.60;74.58;100864.81;5073535;28;20441;-68
2022/06/27 06:07:39;;;;;;;6.40;4.83;;;;;;;25.69;74.50;100866.38;5073420;28;20453;-67
2022/06/27 06:10:07;;;;;;;8.93;4.63;;;;;;;25.78;74.12;100864.81;5073069;28;20993;-67
2022/06/27 06:12:35;;;;;;;7.60;4.50;;;;;;;25.87;74.35;100856.88;5072847;28;20500;-68
2022/06/27 06:15:02;;;;;;;7.77;4.10;;;;;;;25.97;73.06;100860.03;5073353;28;20536;-67
2022/06/27 06:17:29;;;;;;;5.67;4.77;;;;;;;26.06;71.15;100854.84;5073330;28;20441;-67
2022/06/27 06:19:55;;;;;;;6.17;4.53;;;;;;;26.15;71.33;100861.56;5073363;28;20441;-66
2022/06/27 06:22:22;;;;;;;4.03;3.60;;;;;;;26.26;72.03;100863.53;5073270;28;20497;-67
2022/06/27 06:24:49;;;;;;;5.00;3.50;;;;;;;26.31;72.03;100868.69;5073365;28;20529;-67
2022/06/27 06:27:16;;;;;;;4.77;4.20;;;;;;;26.37;71.28;100859.50;5072859;28;20528;-69
2022/06/27 06:29:44;;;;;;;5.80;4.03;;;;;;;26.48;70.60;100865.06;5073219;28;20434;-67
2022/06/27 06:32:12;;;;;;;7.40;3.80;;;;;;;26.58;71.83;100863.44;5073123;28;20488;-68
2022/06/27 06:34:39;;;;;;;5.20;4.10;;;;;;;26.68;70.49;100862.59;5072864;28;20437;-68
2022/06/27 06:37:07;;;;;;;4.90;3.40;;;;;;;26.73;69.23;100862.16;5073249;28;20461;-67
2022/06/27 06:39:34;;;;;;;5.40;4.90;;;;;;;26.81;70.28;100865.69;5072911;28;20499;-68
2022/06/27 06:42:00;;;;;;;5.17;3.83;;;;;;;26.86;69.73;100857.72;5073292;28;20475;-68
2022/06/27 06:44:27;;;;;;;7.97;4.73;;;;;;;26.91;68.24;100860.06;5073091;28;20540;-68
2022/06/27 06:46:56;;;;;;;6.57;3.73;;;;;;;27.01;67.87;100857.66;5073156;28;20449;-67
2022/06/27 06:49:23;;;;;;;6.70;4.47;;;;;;;27.11;67.19;100854.03;5072785;28;20453;-68
2022/06/27 06:51:51;;;;;;;4.60;3.87;;;;;;;27.13;66.68;100852.41;5072918;28;20549;-68
2022/06/27 06:54:20;;;;;;;4.63;4.07;;;;;;;27.21;67.31;100852.38;5073032;28;20532;-68
2022/06/27 06:56:49;;;;;;;4.03;3.40;;;;;;;27.32;66.10;100848.31;5073035;28;20441;-68
2022/06/27 06:59:17;;;;;;;4.37;3.97;;;;;;;27.39;65.36;100853.81;5076648;28;20536;-68
2022/06/27 07:01:44;;;;;;;6.00;4.00;;;;;;;27.47;65.77;100843.41;5077025;28;20831;-67
2022/06/27 07:04:12;;;;;;;3.87;3.47;;;;;;;27.59;65.61;100839.34;5077293;28;20437;-67
2022/06/27 07:06:39;;;;;;;6.30;3.67;;;;;;;27.68;65.02;100836.88;5076934;28;20437;-68
2022/06/27 07:09:05;;;;;;;5.63;3.90;;;;;;;27.73;65.22;100832.88;5076899;28;20532;-71
2022/06/27 07:11:33;;;;;;;3.77;3.43;;;;;;;27.77;65.01;100839.22;5076523;28;20571;-72
2022/06/27 07:14:00;;;;;;;6.80;4.33;;;;;;;27.84;64.59;100839.13;5076619;28;20429;-70
2022/06/27 07:16:27;;;;;;;5.43;3.60;;;;;;;27.90;65.14;100832.69;5076745;28;20449;-69
2022/06/27 07:18:55;;;;;;;7.50;3.90;;;;;;;27.94;65.29;100838.25;5076414;28;20810;-68
2022/06/27 07:21:26;;;;;;;5.30;4.00;;;;;;;28.01;64.03;100832.56;5076274;28;20945;-69
2022/06/27 07:23:53;;;;;;;6.07;3.90;;;;;;;28.03;64.57;100832.97;5076459;28;20426;-69
2022/06/27 07:26:21;;;;;;;4.93;4.43;;;;;;;28.14;63.08;100838.41;5076597;28;20511;-69
2022/06/27 07:28:48;;;;;;;5.57;4.27;;;;;;;28.26;61.48;100834.28;5076584;28;20445;-69
2022/06/27 07:31:16;;;;;;;4.23;3.83;;;;;;;28.34;60.37;100830.22;5076428;28;20480;-69
2022/06/27 07:33:45;;;;;;;8.60;4.10;;;;;;;28.52;58.31;100832.81;5076363;28;20801;-69
2022/06/27 07:36:14;;;;;;;5.40;4.10;;;;;;;28.67;58.65;100836.97;5076171;28;20441;-68
2022/06/27 07:38:43;;;;;;;3.90;3.50;;;;;;;28.71;59.07;100836.94;5076387;28;20452;-68
2022/06/27 07:41:10;;;;;;;5.53;3.10;;;;;;;28.72;60.30;100828.13;5076309;28;20516;-68
2022/06/27 07:43:37;;;;;;;6.53;4.27;;;;;;;28.71;60.59;100823.78;5076395;28;20473;-69
2022/06/27 07:46:04;;;;;;;6.00;4.40;;;;;;;28.75;60.39;100824.50;5076240;28;20529;-68
2022/06/27 07:48:32;;;;;;;5.60;3.70;;;;;;;28.76;60.84;100828.88;5075893;28;20438;-69
2022/06/27 07:50:58;;;;;;;5.77;3.87;;;;;;;28.82;60.63;100823.59;5075725;28;20485;-68
2022/06/27 07:53:26;;;;;;;3.90;3.20;;;;;;;28.88;60.33;100836.66;5075994;28;20465;-68
2022/06/27 07:55:56;;;;;;;4.97;4.03;;;;;;;28.96;57.61;100828.25;5075768;28;20941;-69
2022/06/27 07:58:30;;;;;;;11.80;3.63;;;;;;;29.02;58.60;100832.13;5075987;28;20437;-69
2022/06/27 08:00:58;;;;;;;5.13;2.67;;;;;;;29.03;59.37;100823.31;5075921;28;20422;-69
2022/06/27 08:03:40;;;;;;;5.93;3.90;;;;;;;29.06;61.80;100821.69;5075802;28;20469;-73
2022/06/27 08:06:09;;;;;;;4.07;3.40;;;;;;;29.04;66.90;100819.34;5075659;28;20433;-69
2022/06/27 08:08:37;;;;;;;5.20;4.00;;;;;;;28.89;65.88;100815.94;5075601;28;20481;-69
2022/06/27 08:11:08;;;;;;;5.67;4.07;;;;;;;28.72;66.44;100808.63;5075459;28;20994;-70
2022/06/27 08:13:35;;;;;;;4.83;3.80;;;;;;;28.63;67.51;100808.34;5075341;28;20572;-69
2022/06/27 08:16:02;;;;;;;7.10;3.63;;;;;;;28.51;68.90;100808.91;5075625;28;20437;-69
2022/06/27 08:18:31;;;;;;;4.40;3.70;;;;;;;28.43;69.01;100818.59;5075631;28;20445;-69
2022/06/27 08:20:58;;;;;;;3.70;2.90;;;;;;;28.33;65.22;100815.50;5075582;28;20524;-69
2022/06/27 08:23:24;;;;;;;4.33;3.30;;;;;;;28.30;61.98;100816.31;5075509;28;20463;-70
2022/06/27 08:25:51;;;;;;;4.63;3.40;;;;;;;28.46;61.10;100810.16;5075516;28;20849;-70
2022/06/27 08:28:20;;;;;;;4.27;3.43;;;;;;;28.50;64.04;100810.13;5075441;28;20465;-72
2022/06/27 08:30:47;;;;;;;3.80;3.43;;;;;;;28.50;56.21;100808.13;5074940;28;20821;-69
2022/06/27 08:33:14;;;;;;;4.93;3.20;;;;;;;28.60;61.44;100798.84;5075736;28;20487;-68
2022/06/27 08:35:47;;;;;;;3.57;2.63;;;;;;;28.64;61.20;100807.94;5074890;28;20938;-69
2022/06/27 08:38:15;;;;;;;4.33;3.17;;;;;;;28.61;59.51;100813.56;5074917;28;20904;-68
2022/06/27 08:40:42;;;;;;;4.07;2.93;;;;;;;28.60;59.57;100807.22;5074915;28;20886;-68
2022/06/27 08:43:09;;;;;;;6.53;3.20;;;;;;;28.60;55.55;100800.84;5075093;28;20496;-68
2022/06/27 08:45:37;;;;;;;7.13;2.20;;;;;;;28.76;53.71;100814.16;5075069;28;20534;-67
2022/06/27 08:48:07;;;;;;;3.07;2.77;;;;;;;28.88;52.27;100802.41;5075050;28;20528;-67
2022/06/27 08:50:35;;;;;;;4.07;2.57;;;;;;;29.14;53.14;100806.44;5074932;28;20502;-67
2022/06/27 08:53:02;;;;;;;5.97;3.07;;;;;;;29.26;57.75;100810.59;5074562;28;20461;-67
2022/06/27 08:55:31;;;;;;;2.60;2.10;;;;;;;29.26;56.26;100803.00;5074704;28;20433;-67
2022/06/27 08:58:02;;;;;;;4.80;2.97;;;;;;;29.29;52.62;100807.75;5074782;28;20441;-69
2022/06/27 09:00:30;;;;;;;2.73;1.87;;;;;;;29.38;54.23;100802.41;5074707;28;20430;-66
2022/06/27 09:02:58;;;;;;;5.00;2.90;;;;;;;29.46;54.81;100802.31;5074556;28;20470;-67
2022/06/27 09:05:27;;;;;;;3.20;2.47;;;;;;;29.65;48.41;100807.16;5074351;28;20452;-68
2022/06/27 09:07:55;;;;;;;1.60;1.50;;;;;;;29.90;46.12;100801.91;5074115;28;20807;-68
2022/06/27 09:10:25;;;;;;;2.97;2.40;;;;;;;30.25;45.39;100799.63;5074270;28;20450;-67
2022/06/27 09:12:57;;;;;;;4.77;2.20;;;;;;;30.61;43.51;100794.03;5074089;28;20538;-68
2022/06/27 09:15:26;;;;;;;2.73;1.87;;;;;;;30.82;46.11;100792.81;5074470;28;20430;-67
2022/06/27 09:18:02;;;;;;;1.93;1.83;;;;;;;30.85;46.07;100800.31;5074425;28;20520;-68
2022/06/27 09:20:46;;;;;;;2.60;2.07;;;;;;;31.00;46.26;100792.38;5073766;28;20421;-67
2022/06/27 09:23:40;;;;;;;2.90;2.00;;;;;;;31.06;47.35;100789.84;5074270;28;20465;-68
2022/06/27 09:26:10;;;;;;;3.13;2.30;;;;;;;30.99;47.39;100793.59;5073965;28;20910;-68
2022/06/27 09:28:51;;;;;;;2.37;1.70;;;;;;;30.99;46.34;100778.81;5074193;28;20457;-71
2022/06/27 09:31:42;;;;;;;2.50;2.07;;;;;;;31.06;46.55;100784.25;5074126;28;20465;-69
2022/06/27 09:34:16;;;;;;;2.50;2.20;;;;;;;31.13;46.38;100776.47;5074141;28;20435;-69
2022/06/27 09:36:46;;;;;;;3.30;2.53;;;;;;;31.20;48.03;100783.88;5074110;28;20425;-69
2022/06/27 09:39:18;;;;;;;2.80;2.27;;;;;;;31.20;47.02;100778.28;5074101;28;20441;-68
2022/06/27 09:41:50;;;;;;;2.60;2.20;;;;;;;31.21;46.29;100777.06;5073732;28;20457;-69
2022/06/27 09:44:22;;;;;;;3.33;2.57;;;;;;;31.32;46.32;100782.41;5073923;28;20430;-69
2022/06/27 09:46:54;;;;;;;4.00;2.20;;;;;;;31.39;46.31;100774.63;5073634;28;20433;-69
2022/06/27 09:49:26;;;;;;;3.80;2.77;;;;;;;31.47;45.49;100782.81;5073846;28;20429;-69
2022/06/27 09:51:54;;;;;;;2.40;2.20;;;;;;;31.64;43.09;100767.56;5073658;28;20481;-69
2022/06/27 09:54:22;;;;;;;2.10;1.90;;;;;;;31.76;43.71;100768.84;5072852;28;20441;-71
2022/06/27 09:56:50;;;;;;;2.80;2.27;;;;;;;31.92;43.68;100774.44;5072773;28;20987;-70
2022/06/27 09:59:18;;;;;;;3.13;2.57;;;;;;;31.94;45.99;100773.97;5072652;28;20935;-71
2022/06/27 10:01:46;;;;;;;2.27;1.97;;;;;;;31.94;44.33;100773.97;5073062;28;20548;-69
2022/06/27 10:04:12;;;;;;;3.23;2.13;;;;;;;31.97;44.18;100768.28;5073598;28;20485;-69
2022/06/27 10:06:43;;;;;;;2.53;1.90;;;;;;;32.02;43.51;100772.53;5073177;28;20939;-69
2022/06/27 10:09:16;;;;;;;2.83;2.23;;;;;;;32.05;43.76;100763.22;5073532;28;20956;-69
2022/06/27 10:11:42;;;;;;;2.50;2.30;;;;;;;32.11;45.28;100767.06;5073297;28;20500;-69
2022/06/27 10:14:20;;;;;;;4.03;2.23;;;;;;;32.25;43.17;100777.84;5073608;28;20497;-69
2022/06/27 10:16:57;;;;;;;2.67;2.47;;;;;;;32.31;42.43;100767.63;5073242;28;20911;-69
2022/06/27 10:19:26;;;;;;;2.40;2.20;;;;;;;32.28;45.47;100771.34;5073117;28;20447;-70
2022/06/27 10:21:55;;;;;;;2.53;2.33;;;;;;;32.32;43.41;100766.44;5073266;28;20500;-69
2022/06/27 10:24:35;;;;;;;2.90;2.47;;;;;;;32.47;43.77;100766.03;5073382;28;20847;-70
2022/06/27 10:27:07;;;;;;;2.37;2.10;;;;;;;32.46;44.35;100758.84;5073314;28;20512;-69
2022/06/27 10:29:42;;;;;;;2.37;2.17;;;;;;;32.42;45.06;100756.16;5073214;28;20425;-68
2022/06/27 10:32:30;;;;;;;2.83;2.47;;;;;;;32.51;42.83;100761.09;5072275;28;20523;-69
2022/06/27 10:35:10;;;;;;;1.80;1.70;;;;;;;32.70;39.32;100767.69;5072896;28;20836;-69
2022/06/27 10:37:40;;;;;;;3.50;1.90;;;;;;;32.84;39.94;100767.22;5073253;28;20449;-69
2022/06/27 10:40:55;;;;;;;2.43;1.80;;;;;;;32.93;39.88;100769.38;5073215;28;20460;-69
2022/06/27 10:43:40;;;;;;;1.67;1.47;;;;;;;32.95;38.81;100773.31;5073088;28;20549;-70
2022/06/27 10:46:43;;;;;;;2.63;1.80;;;;;;;33.05;38.97;100768.59;5073094;28;20900;-69
2022/06/27 10:49:27;;;;;;;1.70;1.60;;;;;;;33.15;39.35;100762.59;5073219;28;20508;-69
2022/06/27 10:52:11;;;;;;;2.60;1.80;;;;;;;33.31;39.70;100761.66;5072926;28;20568;-69
2022/06/27 10:54:42;;;;;;;1.60;1.37;;;;;;;33.36;42.06;100752.66;5073086;28;20432;-70
2022/06/27 10:57:08;;;;;;;2.33;1.63;;;;;;;33.47;40.22;100754.31;5072660;28;20998;-69
2022/06/27 11:00:04;;;;;;;2.40;1.80;;;;;;;33.64;36.93;100755.72;5073020;28;20469;-69
2022/06/27 11:02:33;;;;;;;2.40;1.37;;;;;;;33.74;38.09;100754.56;5073001;28;20511;-69
2022/06/27 11:05:00;;;;;;;5.63;2.27;;;;;;;33.83;37.42;100748.22;5072985;28;20445;-69
2022/06/27 11:07:28;;;;;;;3.60;1.90;;;;;;;33.95;38.86;100732.50;5072934;28;20524;-70
2022/06/27 11:09:56;;;;;;;1.67;1.50;;;;;;;34.14;39.99;100746.25;5072687;28;20532;-69
2022/06/27 11:12:29;;;;;;;3.17;1.83;;;;;;;34.27;37.81;100734.91;5072364;28;21080;-70
2022/06/27 11:14:58;;;;;;;2.00;1.33;;;;;;;34.41;37.19;100721.53;5072666;28;20523;-69
2022/06/27 11:17:32;;;;;;;5.20;1.87;;;;;;;34.66;37.85;100728.97;5072541;28;20946;-69
2022/06/27 11:20:23;;;;;;;1.90;1.53;;;;;;;34.88;38.96;100722.00;5072576;28;20535;-69
2022/06/27 11:22:52;;;;;;;1.40;1.30;;;;;;;34.69;38.96;100709.13;5072601;28;20480;-69
2022/06/27 11:25:24;;;;;;;2.63;2.13;;;;;;;34.86;37.79;100723.72;5072847;28;20448;-70
2022/06/27 11:27:54;;;;;;;1.70;1.50;;;;;;;35.04;36.89;100728.63;5072731;28;20446;-69
2022/06/27 11:33:25;;;;;;;5.90;2.00;;;;;;;35.46;36.82;100731.59;5072396;28;20541;-71
2022/06/27 11:35:54;;;;;;;2.20;1.60;;;;;;;35.33;37.45;100730.97;5072639;28;20536;-71
2022/06/27 11:38:24;;;;;;;2.70;1.73;;;;;;;35.51;35.43;100733.06;5072899;28;20519;-73